createdAt,value
2022-10-24T00:02:53.001Z,21.00
2022-10-24T00:07:58.706Z,18.77
2022-10-24T00:13:03.395Z,19.53
2022-10-24T00:18:10.792Z,16.43
2022-10-24T00:23:15.728Z,24.77
2022-10-24T00:28:20.543Z,19.07
2022-10-24T00:33:28.599Z,22.53
2022-10-24T00:38:33.402Z,16.97
2022-10-24T00:43:38.161Z,19.83
2022-10-24T00:48:49.694Z,18.73
2022-10-24T00:59:04.879Z,20.27
2022-10-24T01:04:13.980Z,17.50
2022-10-24T01:09:33.994Z,19.50
2022-10-24T01:14:48.341Z,19.03
2022-10-24T01:20:26.147Z,21.00
2022-10-24T01:25:43.746Z,20.53
2022-10-24T01:30:55.469Z,18.57
2022-10-24T01:36:08.897Z,18.20
2022-10-24T01:41:16.726Z,17.60
2022-10-24T01:46:28.845Z,19.87
2022-10-24T01:51:36.459Z,24.07
2022-10-24T01:56:41.471Z,28.83
2022-10-24T02:01:48.959Z,24.83
2022-10-24T02:06:55.020Z,25.37
2022-10-24T02:12:01.876Z,25.83
2022-10-24T02:17:09.550Z,26.83
2022-10-24T02:22:22.089Z,21.17
2022-10-24T02:27:31.971Z,20.87
2022-10-24T02:32:42.825Z,22.63
2022-10-24T02:37:52.887Z,22.87
2022-10-24T02:43:01.175Z,26.90
2022-10-24T02:48:11.483Z,24.70
2022-10-24T02:53:17.868Z,28.53
2022-10-24T02:58:22.657Z,24.50
2022-10-24T03:03:30.034Z,26.40
2022-10-24T03:08:34.823Z,27.70
2022-10-24T03:13:39.857Z,27.57
2022-10-24T03:18:47.265Z,28.27
2022-10-24T03:23:52.497Z,26.43
2022-10-24T03:28:57.253Z,25.17
2022-10-24T03:34:04.647Z,23.53
2022-10-24T03:39:09.872Z,22.13
2022-10-24T03:44:14.820Z,22.03
2022-10-24T03:49:22.261Z,21.83
2022-10-24T03:54:27.338Z,18.40
2022-10-24T03:59:32.678Z,22.40
2022-10-24T04:04:40.119Z,23.40
2022-10-24T04:09:45.152Z,18.00
2022-10-24T04:14:49.832Z,20.13
2022-10-24T04:19:57.666Z,16.97
2022-10-24T04:25:02.613Z,18.30
2022-10-24T04:30:10.668Z,18.47
2022-10-24T04:35:21.490Z,20.17
2022-10-24T04:40:26.546Z,19.60
2022-10-24T04:45:31.449Z,17.23
2022-10-24T04:50:39.468Z,15.80
2022-10-24T04:55:44.407Z,18.80
2022-10-24T05:00:50.331Z,16.93
2022-10-24T05:06:00.284Z,18.40
2022-10-24T05:11:05.315Z,19.43
2022-10-24T05:16:10.242Z,20.13
2022-10-24T05:21:17.715Z,19.10
2022-10-24T05:26:22.935Z,17.87
2022-10-24T05:31:27.906Z,21.13
2022-10-24T05:36:35.567Z,17.57
2022-10-24T05:41:44.685Z,46.47
2022-10-24T05:46:52.677Z,34.90
2022-10-24T05:52:00.047Z,22.40
2022-10-24T05:57:05.005Z,22.07
2022-10-24T06:02:10.420Z,17.80
2022-10-24T06:07:17.931Z,19.00
2022-10-24T06:12:24.802Z,16.53
2022-10-24T06:17:29.825Z,19.10
2022-10-24T06:22:37.560Z,18.50
2022-10-24T06:27:42.953Z,17.53
2022-10-24T06:32:48.017Z,18.63
2022-10-24T06:37:55.742Z,21.20
2022-10-24T06:43:00.923Z,20.73
2022-10-24T06:48:06.131Z,20.63
2022-10-24T06:53:16.074Z,17.43
2022-10-24T06:58:22.974Z,15.33
2022-10-24T07:03:27.769Z,17.17
2022-10-24T07:08:35.686Z,15.00
2022-10-24T07:13:40.918Z,13.97
2022-10-24T07:18:46.883Z,15.23
2022-10-24T07:23:54.687Z,16.27
2022-10-24T07:29:03.445Z,15.93
2022-10-24T07:34:10.912Z,11.47
2022-10-24T07:39:18.526Z,14.80
2022-10-24T07:44:25.715Z,14.07
2022-10-24T07:49:32.923Z,13.60
2022-10-24T07:54:41.307Z,11.90
2022-10-24T07:59:46.151Z,10.77
2022-10-24T08:04:50.972Z,11.63
2022-10-24T08:09:59.121Z,10.10
2022-10-24T08:15:03.825Z,13.10
2022-10-24T08:20:11.057Z,12.53
2022-10-24T08:25:18.708Z,12.67
2022-10-24T08:30:24.696Z,12.50
2022-10-24T08:35:29.510Z,10.67
2022-10-24T08:40:36.969Z,8.90
2022-10-24T08:45:52.705Z,11.40
2022-10-24T08:51:05.506Z,15.00
2022-10-24T08:56:15.145Z,12.77
2022-10-24T09:01:30.218Z,10.00
2022-10-24T09:06:36.194Z,11.10
2022-10-24T09:11:49.924Z,10.83
2022-10-24T09:16:59.292Z,10.67
2022-10-24T09:22:05.290Z,10.07
2022-10-24T09:27:17.643Z,11.43
2022-10-24T09:32:26.886Z,13.20
2022-10-24T09:37:37.713Z,11.03
2022-10-24T09:42:57.258Z,15.23
2022-10-24T09:48:06.047Z,9.00
2022-10-24T09:53:25.476Z,13.37
2022-10-24T09:58:35.774Z,12.73
2022-10-24T10:03:41.001Z,11.70
2022-10-24T10:08:53.390Z,13.10
2022-10-24T10:14:20.428Z,8.50
2022-10-24T10:19:25.769Z,14.67
2022-10-24T10:24:40.742Z,9.00
2022-10-24T10:29:48.254Z,12.83
2022-10-24T10:35:00.591Z,10.97
2022-10-24T10:40:19.213Z,10.57
2022-10-24T10:45:37.779Z,8.10
2022-10-24T10:50:48.288Z,9.73
2022-10-24T10:56:04.962Z,11.37
2022-10-24T11:01:23.042Z,9.03
2022-10-24T11:06:44.336Z,9.37
2022-10-24T11:11:54.840Z,12.30
2022-10-24T11:17:11.086Z,11.47
2022-10-24T11:22:23.033Z,8.97
2022-10-24T11:27:34.335Z,9.57
2022-10-24T11:32:47.769Z,16.27
2022-10-24T11:38:06.852Z,11.67
2022-10-24T11:43:21.979Z,5.50
2022-10-24T11:48:37.267Z,12.13
2022-10-24T11:53:57.451Z,13.23
2022-10-24T11:59:04.601Z,11.53
2022-10-24T12:04:47.859Z,11.03
2022-10-24T12:10:14.110Z,11.50
2022-10-24T12:15:40.501Z,8.57
2022-10-24T12:20:54.027Z,9.23
2022-10-24T12:26:07.462Z,11.67
2022-10-24T12:31:25.323Z,7.63
2022-10-24T12:37:01.458Z,11.50
2022-10-24T12:42:17.452Z,6.53
2022-10-24T12:47:43.823Z,16.13
2022-10-24T12:53:07.284Z,9.30
2022-10-24T12:58:27.545Z,11.03
2022-10-24T13:03:56.180Z,7.47
2022-10-24T13:09:16.366Z,11.93
2022-10-24T13:14:58.549Z,11.23
2022-10-24T13:20:20.565Z,5.33
2022-10-24T13:25:34.078Z,5.13
2022-10-24T13:30:39.940Z,6.30
2022-10-24T13:35:47.759Z,3.43
2022-10-24T13:40:53.338Z,5.23
2022-10-24T13:46:12.752Z,7.90
2022-10-24T13:51:28.507Z,2.90
2022-10-24T13:56:38.974Z,1.90
2022-10-24T14:01:45.160Z,5.37
2022-10-24T14:06:52.608Z,3.43
2022-10-24T14:11:59.502Z,3.27
2022-10-24T14:17:23.292Z,2.37
2022-10-24T14:22:40.011Z,2.50
2022-10-24T14:27:45.266Z,1.80
2022-10-24T14:32:50.837Z,3.57
2022-10-24T14:38:00.930Z,5.73
2022-10-24T14:43:06.982Z,1.93
2022-10-24T14:48:24.425Z,1.83
2022-10-24T14:53:32.364Z,2.17
2022-10-24T14:58:39.443Z,1.90
2022-10-24T15:03:58.417Z,1.53
2022-10-24T15:09:08.765Z,2.77
2022-10-24T15:14:36.235Z,2.73
2022-10-24T15:19:56.282Z,1.37
2022-10-24T15:25:05.362Z,2.67
2022-10-24T15:30:16.039Z,2.73
2022-10-24T15:35:23.533Z,3.30
2022-10-24T15:40:33.771Z,3.30
2022-10-24T15:45:38.499Z,3.33
2022-10-24T15:50:48.014Z,3.37
2022-10-24T15:55:55.399Z,4.67
2022-10-24T16:01:02.499Z,3.30
2022-10-24T16:06:07.766Z,4.00
2022-10-24T16:11:15.271Z,5.00
2022-10-24T16:16:20.044Z,2.40
2022-10-24T16:21:25.136Z,3.33
2022-10-24T16:26:32.614Z,1.83
2022-10-24T16:31:37.423Z,3.33
2022-10-24T16:36:43.161Z,3.23
2022-10-24T16:41:50.541Z,3.90
2022-10-24T16:46:55.754Z,5.83
2022-10-24T16:52:00.716Z,5.33
2022-10-24T16:57:08.142Z,4.30
2022-10-24T17:02:14.772Z,4.60
2022-10-24T17:07:19.825Z,4.13
2022-10-24T17:12:27.626Z,3.30
2022-10-24T17:17:33.792Z,5.80
2022-10-24T17:22:40.372Z,4.00
2022-10-24T17:27:48.583Z,4.87
2022-10-24T17:32:53.901Z,6.03
2022-10-24T17:38:17.934Z,4.20
2022-10-24T17:43:27.378Z,4.53
2022-10-24T17:48:32.522Z,3.03
2022-10-24T17:53:37.286Z,4.30
2022-10-24T17:58:44.685Z,6.27
2022-10-24T18:03:49.501Z,5.87
2022-10-24T18:08:55.885Z,3.27
2022-10-24T18:14:03.454Z,4.10
2022-10-24T18:19:08.828Z,5.43
2022-10-24T18:24:13.644Z,3.23
2022-10-24T18:29:21.177Z,6.93
2022-10-24T18:34:26.005Z,5.33
2022-10-24T18:39:31.356Z,5.97
2022-10-24T18:44:39.988Z,5.67
2022-10-24T18:49:47.029Z,5.23
2022-10-24T18:55:04.064Z,6.10
2022-10-24T19:00:21.439Z,4.43
2022-10-24T19:05:42.159Z,3.37
2022-10-24T19:10:48.792Z,6.53
2022-10-24T19:16:00.307Z,4.30
2022-10-24T19:21:06.580Z,3.13
2022-10-24T19:26:16.370Z,5.93
2022-10-24T19:31:26.688Z,3.80
2022-10-24T19:36:34.468Z,12.90
2022-10-24T19:41:39.495Z,7.83
2022-10-24T19:46:46.992Z,5.60
2022-10-24T19:51:54.657Z,7.50
2022-10-24T19:56:59.409Z,5.00
2022-10-24T20:02:10.011Z,9.13
2022-10-24T20:07:17.514Z,6.90
2022-10-24T20:12:23.656Z,10.80
2022-10-24T20:17:31.054Z,7.27
2022-10-24T20:22:35.843Z,6.43
2022-10-24T20:27:41.229Z,5.90
2022-10-24T20:32:48.565Z,4.30
2022-10-24T20:37:53.495Z,7.80
2022-10-24T20:42:58.468Z,3.93
2022-10-24T20:48:06.252Z,5.83
2022-10-24T20:53:11.107Z,9.50
2022-10-24T20:58:16.253Z,9.07
2022-10-24T21:03:24.680Z,6.97
2022-10-24T21:08:29.722Z,9.50
2022-10-24T21:13:34.798Z,8.87
2022-10-24T21:18:42.419Z,12.37
2022-10-24T21:23:48.052Z,4.50
2022-10-24T21:28:59.545Z,5.07
2022-10-24T21:34:23.848Z,6.47
2022-10-24T21:39:29.018Z,8.80
2022-10-24T21:44:33.927Z,7.43
2022-10-24T21:49:41.348Z,4.47
2022-10-24T21:54:46.169Z,5.23
2022-10-24T21:59:51.257Z,7.23
2022-10-24T22:04:58.672Z,4.27
2022-10-24T22:10:04.965Z,5.40
2022-10-24T22:15:10.829Z,7.47
2022-10-24T22:20:18.324Z,4.83
2022-10-24T22:25:23.168Z,4.87
2022-10-24T22:30:27.966Z,8.83
2022-10-24T22:35:39.259Z,7.10
2022-10-24T22:40:46.338Z,8.27
2022-10-24T22:46:00.428Z,4.77
2022-10-24T22:51:08.327Z,4.07
2022-10-24T22:56:19.886Z,7.33
2022-10-24T23:01:34.049Z,7.37
2022-10-24T23:06:47.301Z,6.40
2022-10-24T23:11:52.571Z,3.67
2022-10-24T23:17:01.608Z,4.80
2022-10-24T23:22:18.163Z,11.03
2022-10-24T23:27:34.503Z,5.50
2022-10-24T23:32:41.732Z,5.53
2022-10-24T23:37:51.654Z,10.20
2022-10-24T23:43:00.704Z,5.60
2022-10-24T23:48:21.398Z,7.67
2022-10-24T23:53:39.821Z,6.27
2022-10-24T23:58:44.976Z,5.30
